sensor_id;sensor_type;location;lat;lon;timestamp;pressure;altitude;pressure_sealevel;temperature;humidity
55113;BME280;41006;50.920;3.456;2023-09-19T00:00:19;75753.00;;;-147.36;74.34
55113;BME280;41006;50.920;3.456;2023-09-19T00:00:55;75748.97;;;-147.36;74.09
55113;BME280;41006;50.920;3.456;2023-09-19T00:01:27;75753.00;;;-147.36;74.42
55113;BME280;41006;50.920;3.456;2023-09-19T00:02:00;75746.97;;;-147.36;74.40
55113;BME280;41006;50.920;3.456;2023-09-19T00:02:36;75753.00;;;-147.36;74.13
55113;BME280;41006;50.920;3.456;2023-09-19T00:03:09;75744.94;;;-147.36;74.17
55113;BME280;41006;50.920;3.456;2023-09-19T00:03:39;75746.97;;;-147.36;74.22
55113;BME280;41006;50.920;3.456;2023-09-19T00:04:14;75744.94;;;-147.36;74.11
55113;BME280;41006;50.920;3.456;2023-09-19T00:04:49;75744.94;;;-147.36;74.03
55113;BME280;41006;50.920;3.456;2023-09-19T00:05:23;75746.97;;;-147.36;73.79
55113;BME280;41006;50.920;3.456;2023-09-19T00:05:54;75746.97;;;-147.36;73.91
55113;BME280;41006;50.920;3.456;2023-09-19T00:06:25;75748.97;;;-147.36;74.10
55113;BME280;41006;50.920;3.456;2023-09-19T00:06:58;75753.00;;;-147.36;74.37
55113;BME280;41006;50.920;3.456;2023-09-19T00:07:28;75753.00;;;-147.36;74.42
55113;BME280;41006;50.920;3.456;2023-09-19T00:08:01;75757.06;;;-147.36;74.39
55113;BME280;41006;50.920;3.456;2023-09-19T00:08:35;75765.13;;;-147.36;74.14
55113;BME280;41006;50.920;3.456;2023-09-19T00:09:07;75765.13;;;-147.36;74.14
55113;BME280;41006;50.920;3.456;2023-09-19T00:09:40;75757.06;;;-147.36;74.59
55113;BME280;41006;50.920;3.456;2023-09-19T00:10:11;75769.19;;;-147.36;74.71
55113;BME280;41006;50.920;3.456;2023-09-19T00:10:45;75761.09;;;-147.36;74.91
55113;BME280;41006;50.920;3.456;2023-09-19T00:11:18;75761.09;;;-147.36;74.87
55113;BME280;41006;50.920;3.456;2023-09-19T00:11:51;75761.09;;;-147.36;74.87
55113;BME280;41006;50.920;3.456;2023-09-19T00:12:21;75759.06;;;-147.36;74.85
55113;BME280;41006;50.920;3.456;2023-09-19T00:12:52;75755.03;;;-147.36;74.60
55113;BME280;41006;50.920;3.456;2023-09-19T00:13:25;75761.09;;;-147.36;75.51
55113;BME280;41006;50.920;3.456;2023-09-19T00:13:55;75757.06;;;-147.36;74.92
55113;BME280;41006;50.920;3.456;2023-09-19T00:14:29;75777.25;;;-147.36;75.01
55113;BME280;41006;50.920;3.456;2023-09-19T00:14:59;75771.19;;;-147.36;75.04
55113;BME280;41006;50.920;3.456;2023-09-19T00:15:31;75765.13;;;-147.36;75.27
55113;BME280;41006;50.920;3.456;2023-09-19T00:16:09;75759.06;;;-147.36;75.43
55113;BME280;41006;50.920;3.456;2023-09-19T00:16:40;75746.97;;;-147.36;76.09
55113;BME280;41006;50.920;3.456;2023-09-19T00:17:13;75751.00;;;-147.36;75.47
55113;BME280;41006;50.920;3.456;2023-09-19T00:17:46;75748.97;;;-147.36;75.25
55113;BME280;41006;50.920;3.456;2023-09-19T00:18:18;75751.00;;;-147.36;74.97
55113;BME280;41006;50.920;3.456;2023-09-19T00:18:51;75761.09;;;-147.36;75.30
55113;BME280;41006;50.920;3.456;2023-09-19T00:19:31;75765.13;;;-147.36;75.67
55113;BME280;41006;50.920;3.456;2023-09-19T00:20:03;75765.13;;;-147.36;76.39
55113;BME280;41006;50.920;3.456;2023-09-19T00:20:37;75769.19;;;-147.36;75.88
55113;BME280;41006;50.920;3.456;2023-09-19T00:21:08;75761.09;;;-147.36;76.03
55113;BME280;41006;50.920;3.456;2023-09-19T00:21:43;75765.13;;;-147.36;75.89
55113;BME280;41006;50.920;3.456;2023-09-19T00:22:13;75769.19;;;-147.36;76.15
55113;BME280;41006;50.920;3.456;2023-09-19T00:22:48;75769.19;;;-147.36;76.31
55113;BME280;41006;50.920;3.456;2023-09-19T00:23:21;75765.13;;;-147.36;76.24
55113;BME280;41006;50.920;3.456;2023-09-19T00:23:57;75771.19;;;-147.36;76.35
55113;BME280;41006;50.920;3.456;2023-09-19T00:24:29;75771.19;;;-147.36;76.66
55113;BME280;41006;50.920;3.456;2023-09-19T00:25:02;75773.22;;;-147.36;76.73
55113;BME280;41006;50.920;3.456;2023-09-19T00:25:32;75769.19;;;-147.36;77.20
55113;BME280;41006;50.920;3.456;2023-09-19T00:26:07;75769.19;;;-147.36;76.83
55113;BME280;41006;50.920;3.456;2023-09-19T00:26:38;75769.19;;;-147.36;77.08
55113;BME280;41006;50.920;3.456;2023-09-19T00:27:08;75763.13;;;-147.36;77.55
55113;BME280;41006;50.920;3.456;2023-09-19T00:27:41;75771.19;;;-147.36;77.11
55113;BME280;41006;50.920;3.456;2023-09-19T00:28:12;75771.19;;;-147.36;77.34
55113;BME280;41006;50.920;3.456;2023-09-19T00:28:44;75787.34;;;-147.36;77.65
55113;BME280;41006;50.920;3.456;2023-09-19T00:29:17;75797.47;;;-147.36;78.11
55113;BME280;41006;50.920;3.456;2023-09-19T00:29:47;75793.41;;;-147.36;78.50
55113;BME280;41006;50.920;3.456;2023-09-19T00:30:20;75795.44;;;-147.36;78.92
55113;BME280;41006;50.920;3.456;2023-09-19T00:30:51;75787.34;;;-147.36;79.00
55113;BME280;41006;50.920;3.456;2023-09-19T00:31:21;75787.34;;;-147.36;78.68
55113;BME280;41006;50.920;3.456;2023-09-19T00:31:55;75787.34;;;-147.36;78.63
55113;BME280;41006;50.920;3.456;2023-09-19T00:32:29;75789.38;;;-147.36;78.76
55113;BME280;41006;50.920;3.456;2023-09-19T00:33:02;75799.47;;;-147.36;79.08
55113;BME280;41006;50.920;3.456;2023-09-19T00:33:36;75797.47;;;-147.36;79.14
55113;BME280;41006;50.920;3.456;2023-09-19T00:34:06;75791.41;;;-147.36;78.96
55113;BME280;41006;50.920;3.456;2023-09-19T00:34:40;75797.47;;;-147.36;79.26
55113;BME280;41006;50.920;3.456;2023-09-19T00:35:15;75789.38;;;-147.36;78.89
55113;BME280;41006;50.920;3.456;2023-09-19T00:35:48;75793.41;;;-147.36;79.00
55113;BME280;41006;50.920;3.456;2023-09-19T00:36:19;75781.28;;;-147.36;79.45
55113;BME280;41006;50.920;3.456;2023-09-19T00:36:50;75781.28;;;-147.36;79.61
55113;BME280;41006;50.920;3.456;2023-09-19T00:37:25;75781.28;;;-147.36;79.32
55113;BME280;41006;50.920;3.456;2023-09-19T00:37:55;75789.38;;;-147.36;79.21
55113;BME280;41006;50.920;3.456;2023-09-19T00:38:25;75791.41;;;-147.36;79.66
55113;BME280;41006;50.920;3.456;2023-09-19T00:38:58;75783.31;;;-147.36;79.59
55113;BME280;41006;50.920;3.456;2023-09-19T00:39:29;75789.38;;;-147.36;80.01
55113;BME280;41006;50.920;3.456;2023-09-19T00:40:02;75797.47;;;-147.36;79.92
55113;BME280;41006;50.920;3.456;2023-09-19T00:40:35;75801.50;;;-147.36;80.13
55113;BME280;41006;50.920;3.456;2023-09-19T00:41:05;75789.38;;;-147.36;80.13
55113;BME280;41006;50.920;3.456;2023-09-19T00:41:36;75787.34;;;-147.36;80.15
55113;BME280;41006;50.920;3.456;2023-09-19T00:42:08;75783.31;;;-147.36;79.98
55113;BME280;41006;50.920;3.456;2023-09-19T00:42:44;75777.25;;;-147.36;80.16
55113;BME280;41006;50.920;3.456;2023-09-19T00:43:14;75775.25;;;-147.36;79.98
55113;BME280;41006;50.920;3.456;2023-09-19T00:43:44;75763.13;;;-147.36;79.84
55113;BME280;41006;50.920;3.456;2023-09-19T00:44:15;75757.06;;;-147.36;79.68
55113;BME280;41006;50.920;3.456;2023-09-19T00:44:48;75771.19;;;-147.36;79.43
55113;BME280;41006;50.920;3.456;2023-09-19T00:45:22;75779.28;;;-147.36;79.99
55113;BME280;41006;50.920;3.456;2023-09-19T00:45:52;75777.25;;;-147.36;79.81
55113;BME280;41006;50.920;3.456;2023-09-19T00:46:23;75775.25;;;-147.36;80.08
55113;BME280;41006;50.920;3.456;2023-09-19T00:46:53;75771.19;;;-147.36;79.80
55113;BME280;41006;50.920;3.456;2023-09-19T00:47:26;75773.22;;;-147.36;80.04
55113;BME280;41006;50.920;3.456;2023-09-19T00:48:00;75785.34;;;-147.36;79.91
55113;BME280;41006;50.920;3.456;2023-09-19T00:48:37;75785.34;;;-147.36;80.56
55113;BME280;41006;50.920;3.456;2023-09-19T00:49:10;75779.28;;;-147.36;80.64
55113;BME280;41006;50.920;3.456;2023-09-19T00:49:43;75773.22;;;-147.36;80.84
55113;BME280;41006;50.920;3.456;2023-09-19T00:50:14;75777.25;;;-147.36;80.59
55113;BME280;41006;50.920;3.456;2023-09-19T00:50:47;75773.22;;;-147.36;80.74
55113;BME280;41006;50.920;3.456;2023-09-19T00:51:21;75767.16;;;-147.36;80.62
55113;BME280;41006;50.920;3.456;2023-09-19T00:51:51;75771.19;;;-147.36;80.39
55113;BME280;41006;50.920;3.456;2023-09-19T00:52:21;75767.16;;;-147.36;80.67
55113;BME280;41006;50.920;3.456;2023-09-19T00:52:55;75765.13;;;-147.36;80.47
55113;BME280;41006;50.920;3.456;2023-09-19T00:53:30;75769.19;;;-147.36;80.34
55113;BME280;41006;50.920;3.456;2023-09-19T00:54:04;75777.25;;;-147.36;80.34
55113;BME280;41006;50.920;3.456;2023-09-19T00:54:34;75781.28;;;-147.36;80.69
55113;BME280;41006;50.920;3.456;2023-09-19T00:55:09;75775.25;;;-147.36;80.87
55113;BME280;41006;50.920;3.456;2023-09-19T00:55:43;75779.28;;;-147.36;80.78
55113;BME280;41006;50.920;3.456;2023-09-19T00:56:20;75771.19;;;-147.36;80.92
55113;BME280;41006;50.920;3.456;2023-09-19T00:56:53;75783.31;;;-147.36;80.99
55113;BME280;41006;50.920;3.456;2023-09-19T00:57:24;75777.25;;;-147.36;80.97
55113;BME280;41006;50.920;3.456;2023-09-19T00:57:55;75767.16;;;-147.36;80.87
55113;BME280;41006;50.920;3.456;2023-09-19T00:58:25;75761.09;;;-147.36;80.53
55113;BME280;41006;50.920;3.456;2023-09-19T00:58:58;75771.19;;;-147.36;80.10
55113;BME280;41006;50.920;3.456;2023-09-19T00:59:28;75773.22;;;-147.36;80.22
55113;BME280;41006;50.920;3.456;2023-09-19T01:00:02;75777.25;;;-147.36;80.41
55113;BME280;41006;50.920;3.456;2023-09-19T01:00:36;75785.34;;;-147.36;79.99
55113;BME280;41006;50.920;3.456;2023-09-19T01:01:09;75777.25;;;-147.36;80.22
55113;BME280;41006;50.920;3.456;2023-09-19T01:01:42;75775.25;;;-147.36;80.24
55113;BME280;41006;50.920;3.456;2023-09-19T01:02:18;75773.22;;;-147.36;80.60
55113;BME280;41006;50.920;3.456;2023-09-19T01:02:51;75773.22;;;-147.36;80.41
55113;BME280;41006;50.920;3.456;2023-09-19T01:03:24;75781.28;;;-147.36;80.36
55113;BME280;41006;50.920;3.456;2023-09-19T01:03:54;75775.25;;;-147.36;80.28
55113;BME280;41006;50.920;3.456;2023-09-19T01:04:24;75785.34;;;-147.36;80.46
55113;BME280;41006;50.920;3.456;2023-09-19T01:04:55;75781.28;;;-147.36;80.62
55113;BME280;41006;50.920;3.456;2023-09-19T01:05:27;75783.31;;;-147.36;80.49
55113;BME280;41006;50.920;3.456;2023-09-19T01:05:59;75777.25;;;-147.36;80.73
55113;BME280;41006;50.920;3.456;2023-09-19T01:06:30;75777.25;;;-147.36;80.60
55113;BME280;41006;50.920;3.456;2023-09-19T01:07:05;75779.28;;;-147.36;80.62
55113;BME280;41006;50.920;3.456;2023-09-19T01:07:38;75773.22;;;-147.36;80.57
55113;BME280;41006;50.920;3.456;2023-09-19T01:08:11;75775.25;;;-147.36;80.51
55113;BME280;41006;50.920;3.456;2023-09-19T01:08:46;75781.28;;;-147.36;80.67
55113;BME280;41006;50.920;3.456;2023-09-19T01:09:16;75777.25;;;-147.36;80.54
55113;BME280;41006;50.920;3.456;2023-09-19T01:09:46;75777.25;;;-147.36;80.50
55113;BME280;41006;50.920;3.456;2023-09-19T01:10:19;75781.28;;;-147.36;80.46
55113;BME280;41006;50.920;3.456;2023-09-19T01:10:55;75771.19;;;-147.36;80.36
55113;BME280;41006;50.920;3.456;2023-09-19T01:11:58;75763.13;;;-147.36;79.78
55113;BME280;41006;50.920;3.456;2023-09-19T01:13:29;75751.00;;;-147.36;79.68
55113;BME280;41006;50.920;3.456;2023-09-19T01:14:38;75763.13;;;-147.36;79.34
55113;BME280;41006;50.920;3.456;2023-09-19T01:16:37;75755.03;;;-147.36;79.36
55113;BME280;41006;50.920;3.456;2023-09-19T01:17:27;75744.94;;;-147.36;78.77
55113;BME280;41006;50.920;3.456;2023-09-19T01:20:50;75763.13;;;-147.36;78.77
55113;BME280;41006;50.920;3.456;2023-09-19T01:23:08;75761.09;;;-147.36;78.34
55113;BME280;41006;50.920;3.456;2023-09-19T01:30:07;75761.09;;;-147.36;78.62
55113;BME280;41006;50.920;3.456;2023-09-19T01:30:39;75753.00;;;-147.36;78.49
55113;BME280;41006;50.920;3.456;2023-09-19T01:31:10;75740.91;;;-147.36;78.15
55113;BME280;41006;50.920;3.456;2023-09-19T01:31:43;75746.97;;;-147.36;77.95
55113;BME280;41006;50.920;3.456;2023-09-19T01:32:18;75757.06;;;-147.36;77.64
55113;BME280;41006;50.920;3.456;2023-09-19T01:32:51;75755.03;;;-147.36;77.88
55113;BME280;41006;50.920;3.456;2023-09-19T01:33:24;75753.00;;;-147.36;77.65
55113;BME280;41006;50.920;3.456;2023-09-19T01:34:49;75736.84;;;-147.36;77.34
55113;BME280;41006;50.920;3.456;2023-09-19T01:35:22;75728.78;;;-147.36;77.04
55113;BME280;41006;50.920;3.456;2023-09-19T01:35:52;75734.84;;;-147.36;77.08
55113;BME280;41006;50.920;3.456;2023-09-19T01:36:29;75728.78;;;-147.36;77.13
55113;BME280;41006;50.920;3.456;2023-09-19T01:36:59;75724.75;;;-147.36;77.19
55113;BME280;41006;50.920;3.456;2023-09-19T01:37:32;75740.91;;;-147.36;76.70
55113;BME280;41006;50.920;3.456;2023-09-19T01:38:02;75746.97;;;-147.36;76.75
55113;BME280;41006;50.920;3.456;2023-09-19T01:38:33;75748.97;;;-147.36;76.87
55113;BME280;41006;50.920;3.456;2023-09-19T01:39:06;75753.00;;;-147.36;76.49
55113;BME280;41006;50.920;3.456;2023-09-19T01:39:41;75761.09;;;-147.36;76.71
55113;BME280;41006;50.920;3.456;2023-09-19T01:40:16;75759.06;;;-147.36;76.94
55113;BME280;41006;50.920;3.456;2023-09-19T01:40:57;75744.94;;;-147.36;77.18
55113;BME280;41006;50.920;3.456;2023-09-19T01:41:41;75751.00;;;-147.36;77.37
55113;BME280;41006;50.920;3.456;2023-09-19T01:42:59;75748.97;;;-147.36;76.97
55113;BME280;41006;50.920;3.456;2023-09-19T01:43:34;75736.84;;;-147.36;76.97
55113;BME280;41006;50.920;3.456;2023-09-19T01:44:08;75740.91;;;-147.36;77.10
55113;BME280;41006;50.920;3.456;2023-09-19T01:46:21;75734.84;;;-147.36;77.27
55113;BME280;41006;50.920;3.456;2023-09-19T01:46:54;75734.84;;;-147.36;76.99
55113;BME280;41006;50.920;3.456;2023-09-19T01:47:32;75740.91;;;-147.36;76.85
55113;BME280;41006;50.920;3.456;2023-09-19T01:48:19;75744.94;;;-147.36;76.72
55113;BME280;41006;50.920;3.456;2023-09-19T01:49:00;75736.84;;;-147.36;77.17
55113;BME280;41006;50.920;3.456;2023-09-19T01:49:44;75726.75;;;-147.36;77.26
55113;BME280;41006;50.920;3.456;2023-09-19T01:51:02;75738.88;;;-147.36;77.11
55113;BME280;41006;50.920;3.456;2023-09-19T01:52:30;75736.84;;;-147.36;77.10
55113;BME280;41006;50.920;3.456;2023-09-19T01:54:31;75757.06;;;-147.36;77.20
55113;BME280;41006;50.920;3.456;2023-09-19T01:55:05;75748.97;;;-147.36;77.50
55113;BME280;41006;50.920;3.456;2023-09-19T01:55:41;75755.03;;;-147.36;77.47
55113;BME280;41006;50.920;3.456;2023-09-19T01:56:16;75755.03;;;-147.36;77.62
55113;BME280;41006;50.920;3.456;2023-09-19T01:56:57;75757.06;;;-147.36;77.74
55113;BME280;41006;50.920;3.456;2023-09-19T01:57:42;75748.97;;;-147.36;78.12
55113;BME280;41006;50.920;3.456;2023-09-19T01:58:56;75757.06;;;-147.36;78.39
55113;BME280;41006;50.920;3.456;2023-09-19T01:59:35;75751.00;;;-147.36;78.46
55113;BME280;41006;50.920;3.456;2023-09-19T02:00:10;75761.09;;;-147.36;78.49
55113;BME280;41006;50.920;3.456;2023-09-19T02:00:44;75763.13;;;-147.36;78.61
55113;BME280;41006;50.920;3.456;2023-09-19T02:01:17;75761.09;;;-147.36;78.86
55113;BME280;41006;50.920;3.456;2023-09-19T02:01:53;75763.13;;;-147.36;78.72
55113;BME280;41006;50.920;3.456;2023-09-19T02:02:24;75767.16;;;-147.36;79.00
55113;BME280;41006;50.920;3.456;2023-09-19T02:02:55;75761.09;;;-147.36;79.00
55113;BME280;41006;50.920;3.456;2023-09-19T02:03:30;75757.06;;;-147.36;78.81
55113;BME280;41006;50.920;3.456;2023-09-19T02:04:01;75755.03;;;-147.36;78.98
55113;BME280;41006;50.920;3.456;2023-09-19T02:04:33;75757.06;;;-147.36;79.10
55113;BME280;41006;50.920;3.456;2023-09-19T02:05:05;75761.09;;;-147.36;79.12
55113;BME280;41006;50.920;3.456;2023-09-19T02:05:37;75755.03;;;-147.36;79.21
55113;BME280;41006;50.920;3.456;2023-09-19T02:06:14;75763.13;;;-147.36;79.51
55113;BME280;41006;50.920;3.456;2023-09-19T02:06:44;75765.13;;;-147.36;79.62
55113;BME280;41006;50.920;3.456;2023-09-19T02:07:17;75773.22;;;-147.36;79.88
55113;BME280;41006;50.920;3.456;2023-09-19T02:07:50;75775.25;;;-147.36;79.97
55113;BME280;41006;50.920;3.456;2023-09-19T02:08:20;75775.25;;;-147.36;80.09
55113;BME280;41006;50.920;3.456;2023-09-19T02:08:54;75765.13;;;-147.36;80.19
55113;BME280;41006;50.920;3.456;2023-09-19T02:09:26;75773.22;;;-147.36;80.08
55113;BME280;41006;50.920;3.456;2023-09-19T02:10:02;75773.22;;;-147.36;80.29
55113;BME280;41006;50.920;3.456;2023-09-19T02:10:39;75771.19;;;-147.36;80.33
55113;BME280;41006;50.920;3.456;2023-09-19T02:11:10;75763.13;;;-147.36;80.31
55113;BME280;41006;50.920;3.456;2023-09-19T02:11:40;75763.13;;;-147.36;80.29
55113;BME280;41006;50.920;3.456;2023-09-19T02:12:11;75767.16;;;-147.36;80.03
55113;BME280;41006;50.920;3.456;2023-09-19T02:12:43;75771.19;;;-147.36;80.30
55113;BME280;41006;50.920;3.456;2023-09-19T02:13:13;75757.06;;;-147.36;80.41
55113;BME280;41006;50.920;3.456;2023-09-19T02:13:44;75761.09;;;-147.36;80.27
55113;BME280;41006;50.920;3.456;2023-09-19T02:14:14;75755.03;;;-147.36;80.27
55113;BME280;41006;50.920;3.456;2023-09-19T02:14:45;75755.03;;;-147.36;80.27
55113;BME280;41006;50.920;3.456;2023-09-19T02:15:15;75759.06;;;-147.36;80.42
55113;BME280;41006;50.920;3.456;2023-09-19T02:15:48;75755.03;;;-147.36;80.59
55113;BME280;41006;50.920;3.456;2023-09-19T02:16:20;75753.00;;;-147.36;80.77
55113;BME280;41006;50.920;3.456;2023-09-19T02:16:54;75753.00;;;-147.36;80.71
55113;BME280;41006;50.920;3.456;2023-09-19T02:17:24;75751.00;;;-147.36;81.26
55113;BME280;41006;50.920;3.456;2023-09-19T02:17:57;75746.97;;;-147.36;81.32
55113;BME280;41006;50.920;3.456;2023-09-19T02:18:29;75751.00;;;-147.36;81.22
55113;BME280;41006;50.920;3.456;2023-09-19T02:19:00;75748.97;;;-147.36;81.26
55113;BME280;41006;50.920;3.456;2023-09-19T02:19:30;75753.00;;;-147.36;81.35
55113;BME280;41006;50.920;3.456;2023-09-19T02:20:03;75753.00;;;-147.36;81.41
55113;BME280;41006;50.920;3.456;2023-09-19T02:20:43;75761.09;;;-147.36;81.60
55113;BME280;41006;50.920;3.456;2023-09-19T02:21:13;75751.00;;;-147.36;81.59
55113;BME280;41006;50.920;3.456;2023-09-19T02:21:43;75751.00;;;-147.36;81.79
55113;BME280;41006;50.920;3.456;2023-09-19T02:22:13;75748.97;;;-147.36;81.57
55113;BME280;41006;50.920;3.456;2023-09-19T02:22:44;75740.91;;;-147.36;81.72
55113;BME280;41006;50.920;3.456;2023-09-19T02:23:14;75738.88;;;-147.36;81.59
55113;BME280;41006;50.920;3.456;2023-09-19T02:23:45;75751.00;;;-147.36;81.86
55113;BME280;41006;50.920;3.456;2023-09-19T02:24:17;75744.94;;;-147.36;81.93
55113;BME280;41006;50.920;3.456;2023-09-19T02:24:49;75753.00;;;-147.36;82.09
55113;BME280;41006;50.920;3.456;2023-09-19T02:25:22;75751.00;;;-147.36;82.60
55113;BME280;41006;50.920;3.456;2023-09-19T02:25:56;75744.94;;;-147.36;82.46
55113;BME280;41006;50.920;3.456;2023-09-19T02:26:34;75753.00;;;-147.36;82.32
55113;BME280;41006;50.920;3.456;2023-09-19T02:27:05;75753.00;;;-147.36;82.54
55113;BME280;41006;50.920;3.456;2023-09-19T02:27:39;75761.09;;;-147.36;82.91
55113;BME280;41006;50.920;3.456;2023-09-19T02:28:10;75763.13;;;-147.36;82.99
55113;BME280;41006;50.920;3.456;2023-09-19T02:28:43;75761.09;;;-147.36;83.14
55113;BME280;41006;50.920;3.456;2023-09-19T02:29:13;75761.09;;;-147.36;83.31
55113;BME280;41006;50.920;3.456;2023-09-19T02:29:44;75769.19;;;-147.36;83.70
55113;BME280;41006;50.920;3.456;2023-09-19T02:30:14;75765.13;;;-147.36;83.75
55113;BME280;41006;50.920;3.456;2023-09-19T02:30:49;75773.22;;;-147.36;84.27
55113;BME280;41006;50.920;3.456;2023-09-19T02:31:20;75769.19;;;-147.36;84.77
55113;BME280;41006;50.920;3.456;2023-09-19T02:31:55;75777.25;;;-147.36;84.80
55113;BME280;41006;50.920;3.456;2023-09-19T02:32:28;75777.25;;;-147.36;85.17
55113;BME280;41006;50.920;3.456;2023-09-19T02:33:03;75769.19;;;-147.36;85.31
55113;BME280;41006;50.920;3.456;2023-09-19T02:33:36;75773.22;;;-147.36;85.40
55113;BME280;41006;50.920;3.456;2023-09-19T02:34:07;75773.22;;;-147.36;85.52
55113;BME280;41006;50.920;3.456;2023-09-19T02:34:39;75773.22;;;-147.36;85.64
55113;BME280;41006;50.920;3.456;2023-09-19T02:35:10;75773.22;;;-147.36;86.10
55113;BME280;41006;50.920;3.456;2023-09-19T02:35:41;75775.25;;;-147.36;86.16
55113;BME280;41006;50.920;3.456;2023-09-19T02:36:11;75773.22;;;-147.36;86.06
55113;BME280;41006;50.920;3.456;2023-09-19T02:36:47;75759.06;;;-147.36;86.19
55113;BME280;41006;50.920;3.456;2023-09-19T02:37:17;75769.19;;;-147.36;86.12
55113;BME280;41006;50.920;3.456;2023-09-19T02:37:50;75765.13;;;-147.36;86.42
55113;BME280;41006;50.920;3.456;2023-09-19T02:38:20;75765.13;;;-147.36;86.47
55113;BME280;41006;50.920;3.456;2023-09-19T02:38:54;75769.19;;;-147.36;86.58
55113;BME280;41006;50.920;3.456;2023-09-19T02:39:25;75773.22;;;-147.36;86.86
55113;BME280;41006;50.920;3.456;2023-09-19T02:39:55;75777.25;;;-147.36;87.31
55113;BME280;41006;50.920;3.456;2023-09-19T02:40:26;75785.34;;;-147.36;87.63
55113;BME280;41006;50.920;3.456;2023-09-19T02:40:57;75789.38;;;-147.36;87.78
55113;BME280;41006;50.920;3.456;2023-09-19T02:41:31;75781.28;;;-147.36;88.02
55113;BME280;41006;50.920;3.456;2023-09-19T02:42:07;75793.41;;;-147.36;88.76
55113;BME280;41006;50.920;3.456;2023-09-19T02:42:40;75793.41;;;-147.36;89.42
55113;BME280;41006;50.920;3.456;2023-09-19T02:43:12;75817.66;;;-147.36;90.25
55113;BME280;41006;50.920;3.456;2023-09-19T02:43:45;75811.59;;;-147.36;90.88
55113;BME280;41006;50.920;3.456;2023-09-19T02:44:19;75807.56;;;-147.36;91.01
55113;BME280;41006;50.920;3.456;2023-09-19T02:44:53;75813.63;;;-147.36;91.16
55113;BME280;41006;50.920;3.456;2023-09-19T02:45:24;75825.75;;;-147.36;91.71
55113;BME280;41006;50.920;3.456;2023-09-19T02:45:57;75825.75;;;-147.36;91.94
55113;BME280;41006;50.920;3.456;2023-09-19T02:46:27;75831.81;;;-147.36;92.04
55113;BME280;41006;50.920;3.456;2023-09-19T02:46:58;75821.69;;;-147.36;91.91
55113;BME280;41006;50.920;3.456;2023-09-19T02:47:30;75823.72;;;-147.36;92.22
55113;BME280;41006;50.920;3.456;2023-09-19T02:48:03;75821.69;;;-147.36;92.49
55113;BME280;41006;50.920;3.456;2023-09-19T02:48:34;75821.69;;;-147.36;92.84
55113;BME280;41006;50.920;3.456;2023-09-19T02:49:06;75817.66;;;-147.36;93.01
55113;BME280;41006;50.920;3.456;2023-09-19T02:49:39;75821.69;;;-147.36;93.22
55113;BME280;41006;50.920;3.456;2023-09-19T02:50:10;75827.75;;;-147.36;93.84
55113;BME280;41006;50.920;3.456;2023-09-19T02:50:49;75825.75;;;-147.36;94.44
55113;BME280;41006;50.920;3.456;2023-09-19T02:51:21;75829.78;;;-147.36;95.02
55113;BME280;41006;50.920;3.456;2023-09-19T02:51:52;75843.91;;;-147.36;95.62
55113;BME280;41006;50.920;3.456;2023-09-19T02:52:27;75841.91;;;-147.36;96.26
55113;BME280;41006;50.920;3.456;2023-09-19T02:52:57;75843.91;;;-147.36;96.41
55113;BME280;41006;50.920;3.456;2023-09-19T02:53:31;75837.84;;;-147.36;96.53
55113;BME280;41006;50.920;3.456;2023-09-19T02:54:07;75831.81;;;-147.36;96.78
55113;BME280;41006;50.920;3.456;2023-09-19T02:54:37;75841.91;;;-147.36;97.24
55113;BME280;41006;50.920;3.456;2023-09-19T02:55:10;75837.84;;;-147.36;97.29
55113;BME280;41006;50.920;3.456;2023-09-19T02:55:42;75845.94;;;-147.36;97.68
55113;BME280;41006;50.920;3.456;2023-09-19T02:56:16;75843.91;;;-147.36;98.21
55113;BME280;41006;50.920;3.456;2023-09-19T02:56:46;75841.91;;;-147.36;98.73
55113;BME280;41006;50.920;3.456;2023-09-19T02:57:17;75843.91;;;-147.36;98.90
55113;BME280;41006;50.920;3.456;2023-09-19T02:57:50;75854.03;;;-147.36;99.91
55113;BME280;41006;50.920;3.456;2023-09-19T02:58:21;75854.03;;;-147.36;100.00
55113;BME280;41006;50.920;3.456;2023-09-19T02:58:55;75874.22;;;-147.36;100.00
55113;BME280;41006;50.920;3.456;2023-09-19T02:59:28;75872.19;;;-147.36;100.00
55113;BME280;41006;50.920;3.456;2023-09-19T02:59:59;75876.25;;;-147.36;100.00
55113;BME280;41006;50.920;3.456;2023-09-19T03:00:36;75866.16;;;-147.36;100.00
55113;BME280;41006;50.920;3.456;2023-09-19T03:01:09;75870.19;;;-147.36;100.00
55113;BME280;41006;50.920;3.456;2023-09-19T03:01:44;75866.16;;;-147.36;100.00
55113;BME280;41006;50.920;3.456;2023-09-19T03:02:16;75876.25;;;-147.36;100.00
55113;BME280;41006;50.920;3.456;2023-09-19T03:02:55;75872.19;;;-147.36;100.00
55113;BME280;41006;50.920;3.456;2023-09-19T03:03:26;75882.31;;;-147.36;100.00
55113;BME280;41006;50.920;3.456;2023-09-19T03:04:02;75878.25;;;-147.36;100.00
55113;BME280;41006;50.920;3.456;2023-09-19T03:04:32;75888.38;;;-147.36;100.00
55113;BME280;41006;50.920;3.456;2023-09-19T03:05:05;75890.38;;;-147.36;100.00
55113;BME280;41006;50.920;3.456;2023-09-19T03:05:36;75898.47;;;-147.36;100.00
55113;BME280;41006;50.920;3.456;2023-09-19T03:06:08;75900.47;;;-147.36;100.00
55113;BME280;41006;50.920;3.456;2023-09-19T03:06:39;75890.38;;;-147.36;100.00
55113;BME280;41006;50.920;3.456;2023-09-19T03:07:12;75892.41;;;-147.36;100.00
55113;BME280;41006;50.920;3.456;2023-09-19T03:07:45;75898.47;;;-147.36;100.00
55113;BME280;41006;50.920;3.456;2023-09-19T03:08:25;75902.50;;;-147.36;100.00
55113;BME280;41006;50.920;3.456;2023-09-19T03:08:55;75898.47;;;-147.36;100.00
55113;BME280;41006;50.920;3.456;2023-09-19T03:09:26;75898.47;;;-147.36;100.00
55113;BME280;41006;50.920;3.456;2023-09-19T03:09:56;75906.53;;;-147.36;100.00
55113;BME280;41006;50.920;3.456;2023-09-19T03:10:29;75898.47;;;-147.36;100.00
55113;BME280;41006;50.920;3.456;2023-09-19T03:11:01;75908.56;;;-147.36;100.00